Terminal Aerodrome Forecast
Issued by NWS Tulsa, OK

Home | Current Version | Previous Version | Text Only | Print | Product List | Glossary On
Versions: 1 2 3 4 5 6 7 8 9 10 11 12 13 14 15 16
000
FTUS44 KTSA 251500 AAC
TAFFSM
TAF AMD
KFSM 251502Z 2515/2612 07003KT 2SM BR SKC
      TEMPO 2515/2516 1/4SM FG VV001
     FM251600 13005KT P6SM SKC=

USA.gov is the U.S. government's official web portal to all federal, state and local government web resources and services.